Oelwein, IA

4:12 PM CDT on July 27, 2017 (GMT -0500)
Oelwein Municipal

Weather History for KOLZ - March, 2013

Change the Weather History Date:

Saturday, March 9, 2013

  Actual Average Record
Temperature  
Mean Temperature 35 °F -  
Max Temperature 37 °F 39 °F 67 °F (1977)
Min Temperature 33 °F 20 °F -10 °F (1975)
Degree Days  
Heating Degree Days 30    
Moisture  
Dew Point 34 °F    
Average Humidity 97    
Maximum Humidity 100    
Minimum Humidity 93    
Precipitation  
Precipitation 0.74 in - - ()
Sea Level Pressure  
Sea Level Pressure 29.87 in    
Wind  
Wind Speed 17 mph (SE)    
Max Wind Speed 23 mph    
Max Gust Speed 30 mph    
Visibility 2 miles    
Events Fog , Rain    
Averages and records for this station are not official NWS values.
T = Trace of Precipitation, MM = Missing Value Source: NWS Daily Summary

Daily Weather History Graph

Daily Weather History Graph

Search for Another Location

Airport or City:

Trip Planner

Search our weather history database for the weather conditions in past years. The results will help you decide how hot, cold, wet, or windy it might be!

Date:

Astronomy

Mar. 09, 2013 Rise Set
Actual Time 6:29 AM CST 6:07 PM CST
Civil Twilight 6:01 AM CST 6:35 PM CST
Nautical Twilight 5:28 AM CST 7:08 PM CST
Astronomical Twilight 4:56 AM CST 7:41 PM CST
Moon 4:56 AM CST (3/9) 4:08 PM CST (3/9)
Length of Visible Light 12h 34m
Length of Day
11h 37m
Waning Crescent, 5% of the Moon is Illuminated
Mar 9
Waning Crescent
Mar 11
New
Mar 19
First Quarter
Mar 27
Full
Apr 2
Last Quarter

Hourly Weather History & Observations

Time (CST) Temp. Windchill Dew Point Humidity Pressure Visibility Wind Dir Wind Speed Gust Speed Precip Events Conditions
12:15 AM 33.8 °F 21.9 °F 32.0 °F 93% 30.11 in 5.0 mi SE 21.9 mph - N/A   Drizzle
12:35 AM 33.8 °F 21.9 °F 32.0 °F 93% 30.10 in 5.0 mi SE 21.9 mph - N/A Rain Light Rain
12:55 AM 33.8 °F 22.5 °F 32.0 °F 93% 30.10 in 5.0 mi SE 19.6 mph 26.5 mph N/A Rain Rain
1:15 AM 33.8 °F 22.5 °F 32.0 °F 93% 30.09 in 5.0 mi SE 19.6 mph 29.9 mph N/A   Scattered Clouds
1:35 AM 33.8 °F 22.5 °F 32.0 °F 93% 30.08 in 5.0 mi SE 19.6 mph - N/A   Clear
1:55 AM 33.8 °F 21.9 °F 32.0 °F 93% 30.07 in 5.0 mi SE 21.9 mph - N/A   Clear
2:15 AM 33.8 °F 21.9 °F 32.0 °F 93% 30.06 in 5.0 mi SE 21.9 mph 27.6 mph N/A   Clear
2:35 AM 33.8 °F 22.8 °F 32.0 °F 93% 30.05 in 5.0 mi SE 18.4 mph - N/A   Clear
2:55 AM 33.8 °F 23.5 °F 32.0 °F 93% 30.05 in 7.0 mi SE 16.1 mph - N/A   Clear
3:15 AM 33.8 °F 23.9 °F 32.0 °F 93% 30.04 in 7.0 mi SE 15.0 mph - N/A   Clear
3:35 AM 33.8 °F 23.9 °F 32.0 °F 93% 30.04 in 5.0 mi SE 15.0 mph - N/A   Light Drizzle
3:55 AM 33.8 °F 24.3 °F 32.0 °F 93% 30.04 in 5.0 mi SE 13.8 mph - N/A Rain Rain
4:15 AM 33.8 °F 25.3 °F 32.0 °F 93% 30.04 in 5.0 mi SE 11.5 mph - 0.02 in Rain Light Rain
4:35 AM 33.8 °F 25.8 °F 32.0 °F 93% 30.05 in 3.0 mi SE 10.4 mph - 0.04 in Rain Rain
4:55 AM 33.8 °F 23.9 °F 32.0 °F 93% 30.04 in 3.0 mi SE 15.0 mph - 0.07 in Rain Rain
5:15 AM 33.8 °F 23.9 °F 32.0 °F 93% 30.02 in 3.0 mi SE 15.0 mph - 0.05 in Rain Rain
5:35 AM 33.8 °F 22.8 °F 33.8 °F 100% 30.01 in 3.0 mi SE 18.4 mph - 0.11 in Rain Rain
6:15 AM 33.8 °F 21.6 °F 33.8 °F 100% 29.98 in 2.5 mi SE 23.0 mph 28.8 mph 0.03 in Rain Light Rain
6:35 AM 33.8 °F 21.9 °F 33.8 °F 100% 29.97 in 1.8 mi SE 21.9 mph - 0.04 in Rain Light Rain
6:55 AM 33.8 °F 22.5 °F 33.8 °F 100% 29.97 in 2.0 mi SE 19.6 mph 25.3 mph 0.05 in Rain Rain
7:15 AM 33.8 °F 21.9 °F 33.8 °F 100% 29.97 in 2.0 mi SE 21.9 mph 26.5 mph 0.01 in   Drizzle
7:35 AM 35.6 °F 24.2 °F 33.8 °F 93% 29.96 in 1.8 mi SE 21.9 mph - 0.01 in Rain Light Rain
7:55 AM 35.6 °F 24.5 °F 33.8 °F 93% 29.95 in 2.5 mi SE 20.7 mph 27.6 mph 0.01 in Rain Light Rain
8:15 AM 35.6 °F 25.2 °F 33.8 °F 93% 29.94 in 2.5 mi SSE 18.4 mph - N/A   Overcast
8:35 AM 35.6 °F 24.0 °F 33.8 °F 93% 29.93 in 2.5 mi SSE 23.0 mph - N/A   Overcast
8:55 AM 35.6 °F 24.0 °F 33.8 °F 93% 29.92 in 2.0 mi SE 23.0 mph 26.5 mph N/A   Light Drizzle
9:15 AM 35.6 °F 24.8 °F 33.8 °F 93% 29.93 in 2.5 mi SSE 19.6 mph - N/A   Overcast
9:35 AM 35.6 °F 25.2 °F 33.8 °F 93% 29.93 in 2.0 mi SSE 18.4 mph - N/A   Overcast
9:55 AM 35.6 °F 25.2 °F 33.8 °F 93% 29.92 in 0.8 mi SSE 18.4 mph 25.3 mph N/A   Drizzle
10:15 AM 35.6 °F 25.5 °F 33.8 °F 93% 29.91 in 0.8 mi SSE 17.3 mph - N/A Rain Light Rain
10:35 AM 35.6 °F 24.8 °F 33.8 °F 93% 29.89 in 0.8 mi SSE 19.6 mph - N/A   Drizzle
10:55 AM 35.6 °F 24.8 °F 33.8 °F 93% 29.88 in 1.0 mi SE 19.6 mph - 0.01 in   Overcast
11:15 AM 35.6 °F 25.2 °F 33.8 °F 93% 29.86 in 1.0 mi SSE 18.4 mph - N/A   Overcast
11:35 AM 35.6 °F 24.8 °F 33.8 °F 93% 29.86 in 0.8 mi SSE 19.6 mph - N/A   Overcast
11:55 AM 35.6 °F 25.9 °F 33.8 °F 93% 29.86 in 1.0 mi SSE 16.1 mph - N/A   Overcast
12:15 PM 35.6 °F 25.9 °F 35.6 °F 100% 29.85 in 0.8 mi SSE 16.1 mph - N/A Rain Light Rain
12:35 PM 35.6 °F 26.6 °F 33.8 °F 93% 29.85 in 1.0 mi SSE 13.8 mph - 0.01 in Rain Rain
12:55 PM 35.6 °F 26.6 °F 33.8 °F 93% 29.84 in 1.0 mi SSE 13.8 mph - 0.02 in Rain Rain
1:15 PM 35.6 °F 26.2 °F 35.6 °F 100% 29.82 in 1.0 mi SSE 15.0 mph - 0.06 in Rain Rain
1:35 PM 35.6 °F 25.9 °F 35.6 °F 100% 29.79 in 1.2 mi SE 16.1 mph - 0.12 in Rain Rain
1:55 PM 35.6 °F 25.5 °F 35.6 °F 100% 29.78 in 1.5 mi SE 17.3 mph - 0.16 in Rain Rain
2:15 PM 35.6 °F 25.2 °F 35.6 °F 100% 29.77 in 2.5 mi SE 18.4 mph - 0.02 in Rain Light Rain
2:35 PM 35.6 °F 25.9 °F 35.6 °F 100% 29.76 in 2.0 mi SE 16.1 mph - 0.05 in Rain Light Rain
2:55 PM 35.6 °F 25.9 °F 35.6 °F 100% 29.76 in 2.0 mi SE 16.1 mph - 0.08 in Rain Light Rain
3:15 PM 35.6 °F 25.5 °F 35.6 °F 100% 29.74 in 3.0 mi SE 17.3 mph - N/A   Drizzle
3:35 PM 35.6 °F 25.9 °F 35.6 °F 100% 29.74 in 2.5 mi SE 16.1 mph - 0.01 in Rain Light Rain
3:55 PM 35.6 °F 26.2 °F 35.6 °F 100% 29.75 in 1.2 mi SSE 15.0 mph - 0.06 in Rain Rain
4:15 PM 35.6 °F 26.2 °F 35.6 °F 100% 29.75 in 2.0 mi SSE 15.0 mph - 0.01 in Rain Light Rain
4:35 PM 35.6 °F 27.1 °F 35.6 °F 100% 29.76 in 1.0 mi SSE 12.7 mph - 0.04 in Rain Rain
4:55 PM 35.6 °F 26.2 °F 35.6 °F 100% 29.75 in 0.8 mi SSE 15.0 mph - 0.07 in Rain Light Rain
5:15 PM 35.6 °F 27.1 °F 35.6 °F 100% 29.74 in 1.0 mi SE 12.7 mph - 0.01 in Rain Heavy Rain
5:35 PM 35.6 °F 27.5 °F 35.6 °F 100% 29.75 in 1.2 mi SSE 11.5 mph - 0.01 in Rain Rain
6:15 PM 35.6 °F 27.5 °F 35.6 °F 100% 29.76 in 1.0 mi SSE 11.5 mph - 0.02 in   Drizzle
6:35 PM 35.6 °F 27.5 °F 35.6 °F 100% 29.76 in 1.5 mi SSE 11.5 mph - 0.02 in Rain Rain
6:55 PM 35.6 °F 27.1 °F 35.6 °F 100% 29.75 in 1.2 mi SSE 12.7 mph - 0.03 in   Drizzle
7:15 PM 35.6 °F 28.0 °F 35.6 °F 100% 29.75 in 0.8 mi SSE 10.4 mph - N/A Rain Rain
7:35 PM 35.6 °F 27.5 °F 35.6 °F 100% 29.74 in 0.8 mi SE 11.5 mph - 0.01 in Rain Light Rain
7:55 PM 35.6 °F 28.0 °F 35.6 °F 100% 29.74 in 1.2 mi SSE 10.4 mph - 0.03 in Rain Light Rain
8:15 PM 35.6 °F 27.5 °F 35.6 °F 100% 29.74 in 1.2 mi SSE 11.5 mph - N/A   Light Drizzle
8:35 PM 35.6 °F 28.0 °F 35.6 °F 100% 29.74 in 1.0 mi SSE 10.4 mph - N/A Rain Light Rain
8:55 PM 35.6 °F 27.5 °F 35.6 °F 100% 29.74 in 1.2 mi SE 11.5 mph - 0.01 in Rain Light Rain
9:15 PM 35.6 °F 27.5 °F 35.6 °F 100% 29.73 in 1.5 mi SE 11.5 mph - N/A   Drizzle
9:35 PM 35.6 °F 27.5 °F 35.6 °F 100% 29.73 in 1.8 mi SSE 11.5 mph - N/A   Light Drizzle
9:55 PM 35.6 °F 28.6 °F 35.6 °F 100% 29.74 in 1.5 mi SSE 9.2 mph - N/A   Drizzle
10:15 PM 35.6 °F 29.2 °F 35.6 °F 100% 29.73 in 1.0 mi SE 8.1 mph - 0.01 in Rain Light Rain
10:35 PM 37.4 °F 32.1 °F 35.6 °F 93% 29.72 in 1.2 mi SE 6.9 mph - 0.01 in   Overcast
10:55 PM 37.4 °F 31.4 °F 35.6 °F 93% 29.72 in 0.8 mi SSE 8.1 mph - 0.01 in   Overcast
11:15 PM 37.4 °F 33.8 °F 35.6 °F 93% 29.73 in 0.5 mi SSE 4.6 mph - N/A Fog Fog
11:35 PM 35.6 °F - 35.6 °F 100% 29.72 in 0.2 mi Calm Calm - N/A Rain Light Rain
11:55 PM 35.6 °F - 35.6 °F 100% 29.71 in 0.2 mi Calm Calm - 0.01 in Rain Light Rain